sensor_id;sensor_type;location;lat;lon;timestamp;pressure;altitude;pressure_sealevel;temperature;humidity
20630;BME280;17386;43.846;25.950;2022-12-07T00:02:15;101492.56;;;7.29;100.00
20630;BME280;17386;43.846;25.950;2022-12-07T00:04:40;101483.84;;;7.21;100.00
20630;BME280;17386;43.846;25.950;2022-12-07T00:07:05;101482.03;;;7.23;100.00
20630;BME280;17386;43.846;25.950;2022-12-07T00:09:31;101478.47;;;7.27;100.00
20630;BME280;17386;43.846;25.950;2022-12-07T00:11:56;101478.44;;;7.30;100.00
20630;BME280;17386;43.846;25.950;2022-12-07T00:14:22;101483.69;;;7.35;100.00
20630;BME280;17386;43.846;25.950;2022-12-07T00:16:49;101489.03;;;7.27;100.00
20630;BME280;17386;43.846;25.950;2022-12-07T00:19:16;101492.53;;;7.31;100.00
20630;BME280;17386;43.846;25.950;2022-12-07T00:21:42;101488.09;;;7.33;100.00
20630;BME280;17386;43.846;25.950;2022-12-07T00:24:08;101487.13;;;7.40;100.00
20630;BME280;17386;43.846;25.950;2022-12-07T00:26:39;101495.97;;;7.39;100.00
20630;BME280;17386;43.846;25.950;2022-12-07T00:29:07;101495.06;;;7.40;100.00
20630;BME280;17386;43.846;25.950;2022-12-07T00:31:35;101492.47;;;7.37;100.00
20630;BME280;17386;43.846;25.950;2022-12-07T00:34:04;101493.31;;;7.39;100.00
20630;BME280;17386;43.846;25.950;2022-12-07T00:36:30;101484.47;;;7.43;100.00
20630;BME280;17386;43.846;25.950;2022-12-07T00:38:57;101498.59;;;7.40;100.00
20630;BME280;17386;43.846;25.950;2022-12-07T00:41:25;101491.72;;;7.24;100.00
20630;BME280;17386;43.846;25.950;2022-12-07T00:43:51;101495.28;;;7.22;100.00
20630;BME280;17386;43.846;25.950;2022-12-07T00:46:17;101464.66;;;6.98;100.00
20630;BME280;17386;43.846;25.950;2022-12-07T00:48:43;101504.16;;;7.11;100.00
20630;BME280;17386;43.846;25.950;2022-12-07T00:51:11;101495.34;;;7.12;100.00
20630;BME280;17386;43.846;25.950;2022-12-07T00:53:38;101485.66;;;7.13;100.00
20630;BME280;17386;43.846;25.950;2022-12-07T00:56:11;101496.31;;;7.07;100.00
20630;BME280;17386;43.846;25.950;2022-12-07T00:58:37;101492.84;;;6.99;100.00
20630;BME280;17386;43.846;25.950;2022-12-07T01:01:04;101487.50;;;7.08;100.00
20630;BME280;17386;43.846;25.950;2022-12-07T01:03:30;101478.63;;;7.15;100.00
20630;BME280;17386;43.846;25.950;2022-12-07T01:05:55;101478.53;;;7.23;100.00
20630;BME280;17386;43.846;25.950;2022-12-07T01:08:23;101482.09;;;7.17;100.00
20630;BME280;17386;43.846;25.950;2022-12-07T01:10:49;101485.78;;;6.99;100.00
20630;BME280;17386;43.846;25.950;2022-12-07T01:13:15;101476.06;;;7.04;100.00
20630;BME280;17386;43.846;25.950;2022-12-07T01:15:44;101466.28;;;7.12;100.00
20630;BME280;17386;43.846;25.950;2022-12-07T01:18:10;101468.81;;;7.25;100.00
20630;BME280;17386;43.846;25.950;2022-12-07T01:20:36;101461.72;;;7.27;100.00
20630;BME280;17386;43.846;25.950;2022-12-07T01:23:02;101443.25;;;7.25;100.00
20630;BME280;17386;43.846;25.950;2022-12-07T01:25:28;101451.09;;;7.34;100.00
20630;BME280;17386;43.846;25.950;2022-12-07T01:27:53;101453.72;;;7.36;100.00
20630;BME280;17386;43.846;25.950;2022-12-07T01:30:19;101447.53;;;7.37;100.00
20630;BME280;17386;43.846;25.950;2022-12-07T01:32:44;101454.78;;;7.21;100.00
20630;BME280;17386;43.846;25.950;2022-12-07T01:35:10;101447.75;;;7.17;100.00
20630;BME280;17386;43.846;25.950;2022-12-07T01:37:36;101450.34;;;7.23;100.00
20630;BME280;17386;43.846;25.950;2022-12-07T01:40:04;101441.47;;;7.27;100.00
20630;BME280;17386;43.846;25.950;2022-12-07T01:42:30;101445.81;;;7.33;100.00
20630;BME280;17386;43.846;25.950;2022-12-07T01:45:38;101445.75;;;7.39;100.00
20630;BME280;17386;43.846;25.950;2022-12-07T01:48:05;101433.50;;;7.30;100.00
20630;BME280;17386;43.846;25.950;2022-12-07T01:50:31;101436.44;;;7.03;100.00
20630;BME280;17386;43.846;25.950;2022-12-07T01:52:58;101420.63;;;7.00;100.00
20630;BME280;17386;43.846;25.950;2022-12-07T01:55:26;101438.06;;;7.16;100.00
20630;BME280;17386;43.846;25.950;2022-12-07T01:57:53;101431.84;;;7.22;100.00
20630;BME280;17386;43.846;25.950;2022-12-07T02:00:19;101448.50;;;7.27;100.00
20630;BME280;17386;43.846;25.950;2022-12-07T02:02:55;101453.00;;;7.22;100.00
20630;BME280;17386;43.846;25.950;2022-12-07T02:05:24;101467.34;;;6.95;100.00
20630;BME280;17386;43.846;25.950;2022-12-07T02:07:51;101464.84;;;6.81;100.00
20630;BME280;17386;43.846;25.950;2022-12-07T02:10:19;101457.78;;;6.81;100.00
20630;BME280;17386;43.846;25.950;2022-12-07T02:12:46;101463.13;;;6.72;100.00
20630;BME280;17386;43.846;25.950;2022-12-07T02:15:12;101456.09;;;6.74;100.00
20630;BME280;17386;43.846;25.950;2022-12-07T02:17:48;101458.66;;;6.82;100.00
20630;BME280;17386;43.846;25.950;2022-12-07T02:20:30;101454.44;;;6.61;100.00
20630;BME280;17386;43.846;25.950;2022-12-07T02:28:33;101439.25;;;6.84;100.00
20630;BME280;17386;43.846;25.950;2022-12-07T02:31:06;101439.19;;;6.91;100.00
20630;BME280;17386;43.846;25.950;2022-12-07T02:33:41;101441.91;;;6.84;100.00
20630;BME280;17386;43.846;25.950;2022-12-07T02:36:15;101434.13;;;6.69;100.00
20630;BME280;17386;43.846;25.950;2022-12-07T02:39:02;101430.66;;;6.66;100.00
20630;BME280;17386;43.846;25.950;2022-12-07T02:41:36;101428.88;;;6.63;100.00
20630;BME280;17386;43.846;25.950;2022-12-07T02:44:15;101434.22;;;6.55;100.00
20630;BME280;17386;43.846;25.950;2022-12-07T02:46:46;101433.28;;;6.64;100.00
20630;BME280;17386;43.846;25.950;2022-12-07T02:49:14;101433.19;;;6.72;100.00
20630;BME280;17386;43.846;25.950;2022-12-07T02:51:44;101437.78;;;6.51;100.00
20630;BME280;17386;43.846;25.950;2022-12-07T02:54:17;101438.75;;;6.41;100.00
20630;BME280;17386;43.846;25.950;2022-12-07T02:56:53;101427.41;;;6.32;100.00
20630;BME280;17386;43.846;25.950;2022-12-07T03:02:53;101429.84;;;6.54;100.00
20630;BME280;17386;43.846;25.950;2022-12-07T03:05:41;101432.47;;;6.56;100.00
20630;BME280;17386;43.846;25.950;2022-12-07T03:08:13;101432.44;;;6.61;100.00
20630;BME280;17386;43.846;25.950;2022-12-07T03:10:58;101423.63;;;6.62;100.00
20630;BME280;17386;43.846;25.950;2022-12-07T03:16:34;101418.38;;;6.60;100.00
20630;BME280;17386;43.846;25.950;2022-12-07T03:19:08;101415.81;;;6.49;100.00
20630;BME280;17386;43.846;25.950;2022-12-07T03:21:39;101417.66;;;6.40;100.00
20630;BME280;17386;43.846;25.950;2022-12-07T03:24:15;101407.97;;;6.37;100.00
20630;BME280;17386;43.846;25.950;2022-12-07T03:26:49;101407.19;;;6.24;100.00
20630;BME280;17386;43.846;25.950;2022-12-07T03:29:24;101413.41;;;6.16;100.00
20630;BME280;17386;43.846;25.950;2022-12-07T03:31:55;101409.00;;;6.19;100.00
20630;BME280;17386;43.846;25.950;2022-12-07T03:34:34;101408.13;;;6.16;100.00
20630;BME280;17386;43.846;25.950;2022-12-07T03:37:23;101404.53;;;6.24;100.00
20630;BME280;17386;43.846;25.950;2022-12-07T03:42:16;101416.91;;;6.16;100.00
20630;BME280;17386;43.846;25.950;2022-12-07T03:44:42;101426.66;;;6.08;100.00
20630;BME280;17386;43.846;25.950;2022-12-07T03:47:15;101421.25;;;6.26;100.00
20630;BME280;17386;43.846;25.950;2022-12-07T03:49:54;101420.34;;;6.29;100.00
20630;BME280;17386;43.846;25.950;2022-12-07T03:52:40;101416.78;;;6.39;100.00
20630;BME280;17386;43.846;25.950;2022-12-07T03:55:19;101419.38;;;6.45;100.00
20630;BME280;17386;43.846;25.950;2022-12-07T03:57:47;101422.03;;;6.42;100.00
20630;BME280;17386;43.846;25.950;2022-12-07T04:00:15;101422.88;;;6.44;100.00
20630;BME280;17386;43.846;25.950;2022-12-07T04:02:41;101414.97;;;6.46;100.00
20630;BME280;17386;43.846;25.950;2022-12-07T04:05:07;101421.00;;;6.57;100.00
20630;BME280;17386;43.846;25.950;2022-12-07T04:07:33;101418.38;;;6.60;100.00
20630;BME280;17386;43.846;25.950;2022-12-07T04:09:58;101414.78;;;6.64;100.00
20630;BME280;17386;43.846;25.950;2022-12-07T04:12:24;101410.41;;;6.66;100.00
20630;BME280;17386;43.846;25.950;2022-12-07T04:14:49;101407.72;;;6.68;100.00
20630;BME280;17386;43.846;25.950;2022-12-07T04:17:15;101412.16;;;6.64;100.00
20630;BME280;17386;43.846;25.950;2022-12-07T04:19:40;101419.19;;;6.64;100.00
20630;BME280;17386;43.846;25.950;2022-12-07T04:22:06;101417.34;;;6.76;100.00
20630;BME280;17386;43.846;25.950;2022-12-07T04:24:33;101420.09;;;6.66;100.00
20630;BME280;17386;43.846;25.950;2022-12-07T04:26:59;101422.84;;;6.52;100.00
20630;BME280;17386;43.846;25.950;2022-12-07T04:29:25;101411.28;;;6.64;100.00
20630;BME280;17386;43.846;25.950;2022-12-07T04:31:51;101416.53;;;6.68;100.00
20630;BME280;17386;43.846;25.950;2022-12-07T04:34:17;101416.59;;;6.57;100.00
20630;BME280;17386;43.846;25.950;2022-12-07T04:36:44;101410.41;;;6.66;100.00
20630;BME280;17386;43.846;25.950;2022-12-07T04:39:25;101410.25;;;6.78;100.00
20630;BME280;17386;43.846;25.950;2022-12-07T04:41:50;101409.41;;;6.79;100.00
20630;BME280;17386;43.846;25.950;2022-12-07T04:44:17;101411.94;;;6.89;100.00
20630;BME280;17386;43.846;25.950;2022-12-07T04:46:43;101410.19;;;6.88;100.00
20630;BME280;17386;43.846;25.950;2022-12-07T04:49:10;101405.72;;;6.93;100.00
20630;BME280;17386;43.846;25.950;2022-12-07T04:51:35;101404.78;;;6.98;100.00
20630;BME280;17386;43.846;25.950;2022-12-07T04:54:00;101412.97;;;6.74;100.00
20630;BME280;17386;43.846;25.950;2022-12-07T04:56:26;101402.41;;;6.71;100.00
20630;BME280;17386;43.846;25.950;2022-12-07T04:58:53;101419.91;;;6.82;100.00
20630;BME280;17386;43.846;25.950;2022-12-07T05:01:18;101420.78;;;6.84;100.00
20630;BME280;17386;43.846;25.950;2022-12-07T05:03:45;101419.06;;;6.77;100.00
20630;BME280;17386;43.846;25.950;2022-12-07T05:06:10;101417.31;;;6.79;100.00
20630;BME280;17386;43.846;25.950;2022-12-07T05:08:36;101426.25;;;6.63;100.00
20630;BME280;17386;43.846;25.950;2022-12-07T05:11:03;101425.41;;;6.58;100.00
20630;BME280;17386;43.846;25.950;2022-12-07T05:13:29;101426.28;;;6.57;100.00
20630;BME280;17386;43.846;25.950;2022-12-07T05:15:55;101431.53;;;6.63;100.00
20630;BME280;17386;43.846;25.950;2022-12-07T05:18:20;101436.81;;;6.62;100.00
20630;BME280;17386;43.846;25.950;2022-12-07T05:20:46;101427.22;;;6.54;100.00
20630;BME280;17386;43.846;25.950;2022-12-07T05:23:11;101430.63;;;6.67;100.00
20630;BME280;17386;43.846;25.950;2022-12-07T05:25:38;101434.03;;;6.77;100.00
20630;BME280;17386;43.846;25.950;2022-12-07T05:28:04;101432.34;;;6.70;100.00
20630;BME280;17386;43.846;25.950;2022-12-07T05:30:29;101428.00;;;6.64;100.00
20630;BME280;17386;43.846;25.950;2022-12-07T05:32:55;101433.34;;;6.55;100.00
20630;BME280;17386;43.846;25.950;2022-12-07T05:35:21;101432.44;;;6.57;100.00
20630;BME280;17386;43.846;25.950;2022-12-07T05:37:46;101431.66;;;6.48;100.00
20630;BME280;17386;43.846;25.950;2022-12-07T05:40:12;101432.44;;;6.61;100.00
20630;BME280;17386;43.846;25.950;2022-12-07T05:42:39;101424.59;;;6.50;100.00
20630;BME280;17386;43.846;25.950;2022-12-07T05:45:05;101417.59;;;6.44;100.00
20630;BME280;17386;43.846;25.950;2022-12-07T05:47:31;101424.53;;;6.56;100.00
20630;BME280;17386;43.846;25.950;2022-12-07T05:49:56;101425.41;;;6.58;100.00
20630;BME280;17386;43.846;25.950;2022-12-07T05:52:22;101420.19;;;6.50;100.00
20630;BME280;17386;43.846;25.950;2022-12-07T05:54:48;101421.00;;;6.62;100.00
20630;BME280;17386;43.846;25.950;2022-12-07T05:57:13;101425.41;;;6.58;100.00
20630;BME280;17386;43.846;25.950;2022-12-07T05:59:38;101420.94;;;6.68;100.00
20630;BME280;17386;43.846;25.950;2022-12-07T06:02:07;101422.75;;;6.61;100.00
20630;BME280;17386;43.846;25.950;2022-12-07T06:04:36;101420.13;;;6.56;100.00
20630;BME280;17386;43.846;25.950;2022-12-07T06:07:02;101425.41;;;6.61;100.00
20630;BME280;17386;43.846;25.950;2022-12-07T06:09:28;101433.22;;;6.73;100.00
20630;BME280;17386;43.846;25.950;2022-12-07T06:11:55;101427.84;;;6.82;100.00
20630;BME280;17386;43.846;25.950;2022-12-07T06:14:39;101430.50;;;6.78;100.00
20630;BME280;17386;43.846;25.950;2022-12-07T06:17:05;101426.06;;;6.84;100.00
20630;BME280;17386;43.846;25.950;2022-12-07T06:19:31;101424.22;;;6.91;100.00
20630;BME280;17386;43.846;25.950;2022-12-07T06:21:57;101425.97;;;6.95;100.00
20630;BME280;17386;43.846;25.950;2022-12-07T06:24:22;101424.25;;;6.90;100.00
20630;BME280;17386;43.846;25.950;2022-12-07T06:26:48;101430.31;;;6.99;100.00
20630;BME280;17386;43.846;25.950;2022-12-07T06:29:14;101428.50;;;7.07;100.00
20630;BME280;17386;43.846;25.950;2022-12-07T06:31:40;101424.88;;;7.13;100.00
20630;BME280;17386;43.846;25.950;2022-12-07T06:34:09;101431.94;;;7.12;100.00
20630;BME280;17386;43.846;25.950;2022-12-07T06:36:34;101426.72;;;7.08;100.00
20630;BME280;17386;43.846;25.950;2022-12-07T06:39:00;101428.75;;;6.80;100.00
20630;BME280;17386;43.846;25.950;2022-12-07T06:41:26;101434.00;;;6.83;100.00
20630;BME280;17386;43.846;25.950;2022-12-07T06:43:51;101441.91;;;6.84;100.00
20630;BME280;17386;43.846;25.950;2022-12-07T06:46:17;101440.28;;;6.68;100.00
20630;BME280;17386;43.846;25.950;2022-12-07T06:48:43;101440.16;;;6.82;100.00
20630;BME280;17386;43.846;25.950;2022-12-07T06:51:08;101431.31;;;6.88;100.00
20630;BME280;17386;43.846;25.950;2022-12-07T06:53:34;101440.03;;;6.96;100.00
20630;BME280;17386;43.846;25.950;2022-12-07T06:56:00;101440.84;;;7.04;100.00
20630;BME280;17386;43.846;25.950;2022-12-07T06:58:25;101436.56;;;6.94;100.00
20630;BME280;17386;43.846;25.950;2022-12-07T07:00:51;101447.28;;;6.74;100.00
20630;BME280;17386;43.846;25.950;2022-12-07T07:03:16;101440.16;;;6.82;100.00
20630;BME280;17386;43.846;25.950;2022-12-07T07:05:43;101445.56;;;6.70;100.00
20630;BME280;17386;43.846;25.950;2022-12-07T07:08:08;101443.00;;;6.61;100.00
20630;BME280;17386;43.846;25.950;2022-12-07T07:10:34;101449.91;;;6.72;100.00
20630;BME280;17386;43.846;25.950;2022-12-07T07:12:59;101446.41;;;6.73;100.00
20630;BME280;17386;43.846;25.950;2022-12-07T07:15:25;101450.75;;;6.77;100.00
20630;BME280;17386;43.846;25.950;2022-12-07T07:17:50;101446.38;;;6.76;100.00
20630;BME280;17386;43.846;25.950;2022-12-07T07:20:16;101445.50;;;6.76;100.00
20630;BME280;17386;43.846;25.950;2022-12-07T07:22:41;101439.22;;;6.89;100.00
20630;BME280;17386;43.846;25.950;2022-12-07T07:25:07;101421.53;;;6.97;100.00
20630;BME280;17386;43.846;25.950;2022-12-07T07:27:32;101449.53;;;7.17;100.00
20630;BME280;17386;43.846;25.950;2022-12-07T07:29:58;101449.47;;;7.20;100.00
20630;BME280;17386;43.846;25.950;2022-12-07T07:32:23;101442.41;;;7.23;100.00
20630;BME280;17386;43.846;25.950;2022-12-07T07:34:48;101451.16;;;7.27;100.00
20630;BME280;17386;43.846;25.950;2022-12-07T07:37:14;101438.06;;;7.16;100.00
20630;BME280;17386;43.846;25.950;2022-12-07T07:39:39;101442.44;;;7.19;100.00
20630;BME280;17386;43.846;25.950;2022-12-07T07:42:05;101433.63;;;7.21;100.00
20630;BME280;17386;43.846;25.950;2022-12-07T07:44:33;101440.63;;;7.25;100.00
20630;BME280;17386;43.846;25.950;2022-12-07T07:46:58;101440.63;;;7.25;100.00
20630;BME280;17386;43.846;25.950;2022-12-07T07:49:23;101448.59;;;7.22;100.00
20630;BME280;17386;43.846;25.950;2022-12-07T07:51:49;101447.63;;;7.29;100.00
20630;BME280;17386;43.846;25.950;2022-12-07T07:54:14;101440.53;;;7.34;100.00
20630;BME280;17386;43.846;25.950;2022-12-07T07:56:40;101438.75;;;7.33;100.00
20630;BME280;17386;43.846;25.950;2022-12-07T07:59:05;101445.06;;;7.22;100.00
20630;BME280;17386;43.846;25.950;2022-12-07T08:01:31;101442.44;;;7.22;100.00
20630;BME280;17386;43.846;25.950;2022-12-07T08:03:56;101444.91;;;7.34;100.00
20630;BME280;17386;43.846;25.950;2022-12-07T08:06:22;101427.47;;;7.19;100.00
20630;BME280;17386;43.846;25.950;2022-12-07T08:08:47;101441.75;;;7.00;100.00
20630;BME280;17386;43.846;25.950;2022-12-07T08:11:13;101446.16;;;6.99;100.00
20630;BME280;17386;43.846;25.950;2022-12-07T08:13:38;101440.06;;;6.94;100.00
20630;BME280;17386;43.846;25.950;2022-12-07T08:16:06;101443.66;;;6.84;100.00
20630;BME280;17386;43.846;25.950;2022-12-07T08:18:36;101452.69;;;6.60;100.00
20630;BME280;17386;43.846;25.950;2022-12-07T08:21:02;101443.91;;;6.56;100.00
20630;BME280;17386;43.846;25.950;2022-12-07T08:23:29;101442.91;;;6.70;100.00
20630;BME280;17386;43.846;25.950;2022-12-07T08:25:55;101441.91;;;6.84;100.00
20630;BME280;17386;43.846;25.950;2022-12-07T08:28:24;101432.25;;;6.79;100.00
20630;BME280;17386;43.846;25.950;2022-12-07T08:30:50;101427.69;;;6.98;100.00
20630;BME280;17386;43.846;25.950;2022-12-07T08:33:15;101436.41;;;7.07;100.00
20630;BME280;17386;43.846;25.950;2022-12-07T08:35:41;101431.03;;;7.17;100.00
20630;BME280;17386;43.846;25.950;2022-12-07T08:38:06;101432.91;;;7.04;100.00
20630;BME280;17386;43.846;25.950;2022-12-07T08:40:31;101427.72;;;6.95;100.00
20630;BME280;17386;43.846;25.950;2022-12-07T08:42:57;101442.53;;;7.11;100.00
20630;BME280;17386;43.846;25.950;2022-12-07T08:45:22;101435.56;;;7.04;100.00
20630;BME280;17386;43.846;25.950;2022-12-07T08:47:55;101439.88;;;7.11;100.00
20630;BME280;17386;43.846;25.950;2022-12-07T08:50:22;101444.19;;;7.21;100.00
20630;BME280;17386;43.846;25.950;2022-12-07T08:52:51;101438.16;;;7.05;100.00
20630;BME280;17386;43.846;25.950;2022-12-07T08:55:18;101431.84;;;7.22;100.00
20630;BME280;17386;43.846;25.950;2022-12-07T08:57:44;101438.75;;;7.35;100.00
20630;BME280;17386;43.846;25.950;2022-12-07T09:00:10;101424.66;;;7.36;100.00
20630;BME280;17386;43.846;25.950;2022-12-07T09:02:35;101417.53;;;7.39;100.00
20630;BME280;17386;43.846;25.950;2022-12-07T09:05:01;101405.22;;;7.38;100.00
20630;BME280;17386;43.846;25.950;2022-12-07T09:07:27;101399.84;;;7.46;100.00
20630;BME280;17386;43.846;25.950;2022-12-07T09:09:54;101388.34;;;7.50;100.00
20630;BME280;17386;43.846;25.950;2022-12-07T09:12:19;101395.25;;;7.60;100.00
20630;BME280;17386;43.846;25.950;2022-12-07T09:14:44;101392.59;;;7.62;100.00
20630;BME280;17386;43.846;25.950;2022-12-07T09:17:11;101401.28;;;7.72;100.00
20630;BME280;17386;43.846;25.950;2022-12-07T09:19:37;101400.31;;;7.79;100.00
20630;BME280;17386;43.846;25.950;2022-12-07T09:22:04;101402.91;;;7.83;100.00
20630;BME280;17386;43.846;25.950;2022-12-07T09:24:30;101402.28;;;7.61;100.00
20630;BME280;17386;43.846;25.950;2022-12-07T09:26:57;101404.13;;;7.55;100.00
20630;BME280;17386;43.846;25.950;2022-12-07T09:29:22;101399.06;;;7.38;100.00
20630;BME280;17386;43.846;25.950;2022-12-07T09:31:48;101396.34;;;7.44;100.00
20630;BME280;17386;43.846;25.950;2022-12-07T09:34:13;101398.16;;;7.42;100.00
20630;BME280;17386;43.846;25.950;2022-12-07T09:36:39;101398.94;;;7.47;100.00
20630;BME280;17386;43.846;25.950;2022-12-07T09:39:04;101395.50;;;7.40;100.00
20630;BME280;17386;43.846;25.950;2022-12-07T09:41:31;101400.63;;;7.53;100.00
20630;BME280;17386;43.846;25.950;2022-12-07T09:44:05;101403.16;;;7.63;100.00
20630;BME280;17386;43.846;25.950;2022-12-07T09:46:34;101406.88;;;7.49;100.00
20630;BME280;17386;43.846;25.950;2022-12-07T09:49:01;101394.00;;;7.21;100.00
20630;BME280;17386;43.846;25.950;2022-12-07T09:51:26;101384.09;;;7.37;100.00
20630;BME280;17386;43.846;25.950;2022-12-07T09:53:53;101381.19;;;7.58;100.00
20630;BME280;17386;43.846;25.950;2022-12-07T09:56:20;101382.94;;;7.58;100.00
20630;BME280;17386;43.846;25.950;2022-12-07T09:58:48;101373.84;;;7.79;100.00
20630;BME280;17386;43.846;25.950;2022-12-07T10:01:19;101362.94;;;8.00;100.00
20630;BME280;17386;43.846;25.950;2022-12-07T10:03:55;101366.09;;;8.25;100.00
20630;BME280;17386;43.846;25.950;2022-12-07T10:06:24;101366.16;;;8.20;100.00
20630;BME280;17386;43.846;25.950;2022-12-07T10:08:49;101366.91;;;8.29;100.00
20630;BME280;17386;43.846;25.950;2022-12-07T10:11:15;101377.31;;;8.42;100.00
20630;BME280;17386;43.846;25.950;2022-12-07T10:13:47;101368.22;;;8.57;100.00
20630;BME280;17386;43.846;25.950;2022-12-07T10:16:41;101366.38;;;8.62;100.00
20630;BME280;17386;43.846;25.950;2022-12-07T10:19:29;101371.63;;;8.64;100.00
20630;BME280;17386;43.846;25.950;2022-12-07T10:24:29;101355.84;;;8.59;100.00
20630;BME280;17386;43.846;25.950;2022-12-07T10:26:55;101353.09;;;8.64;100.00
20630;BME280;17386;43.846;25.950;2022-12-07T10:29:30;101350.31;;;8.71;100.00
20630;BME280;17386;43.846;25.950;2022-12-07T10:32:02;101356.50;;;8.72;100.00
20630;BME280;17386;43.846;25.950;2022-12-07T10:34:34;101359.66;;;8.44;100.00
20630;BME280;17386;43.846;25.950;2022-12-07T10:42:26;101350.69;;;7.94;100.00
20630;BME280;17386;43.846;25.950;2022-12-07T10:45:14;101349.44;;;8.18;100.00
20630;BME280;17386;43.846;25.950;2022-12-07T10:47:59;101335.97;;;8.32;100.00
20630;BME280;17386;43.846;25.950;2022-12-07T10:55:56;101322.94;;;8.72;100.00
20630;BME280;17386;43.846;25.950;2022-12-07T11:12:56;101328.72;;;8.46;100.00
20630;BME280;17386;43.846;25.950;2022-12-07T11:17:49;101325.22;;;8.43;100.00
20630;BME280;17386;43.846;25.950;2022-12-07T11:20:29;101326.19;;;8.39;100.00
20630;BME280;17386;43.846;25.950;2022-12-07T11:25:40;101313.69;;;8.47;100.00
20630;BME280;17386;43.846;25.950;2022-12-07T11:31:05;101300.41;;;8.48;100.00
20630;BME280;17386;43.846;25.950;2022-12-07T11:33:49;101304.59;;;8.62;100.00
20630;BME280;17386;43.846;25.950;2022-12-07T11:36:40;101294.81;;;8.64;100.00
20630;BME280;17386;43.846;25.950;2022-12-07T11:39:16;101296.47;;;8.72;100.00
20630;BME280;17386;43.846;25.950;2022-12-07T11:41:48;101300.91;;;8.69;100.00
20630;BME280;17386;43.846;25.950;2022-12-07T11:47:16;101294.28;;;8.46;100.00
20630;BME280;17386;43.846;25.950;2022-12-07T11:49:45;101296.75;;;8.56;100.00
20630;BME280;17386;43.846;25.950;2022-12-07T11:52:48;101288.16;;;8.43;100.00
20630;BME280;17386;43.846;25.950;2022-12-07T11:55:39;101279.19;;;8.52;100.00
20630;BME280;17386;43.846;25.950;2022-12-07T12:00:37;101264.66;;;8.72;100.00
20630;BME280;17386;43.846;25.950;2022-12-07T12:03:12;101269.81;;;8.80;100.00
20630;BME280;17386;43.846;25.950;2022-12-07T12:05:41;101271.59;;;8.78;100.00
20630;BME280;17386;43.846;25.950;2022-12-07T12:08:31;101270.69;;;8.81;100.00
20630;BME280;17386;43.846;25.950;2022-12-07T12:11:45;101279.53;;;8.78;100.00
20630;BME280;17386;43.846;25.950;2022-12-07T12:17:07;101266.00;;;8.48;100.00
20630;BME280;17386;43.846;25.950;2022-12-07T12:20:00;101261.50;;;8.54;100.00
20630;BME280;17386;43.846;25.950;2022-12-07T12:22:38;101257.00;;;8.59;100.00
20630;BME280;17386;43.846;25.950;2022-12-07T12:25:27;101250.94;;;8.50;100.00
20630;BME280;17386;43.846;25.950;2022-12-07T12:27:58;101245.63;;;8.52;100.00
20630;BME280;17386;43.846;25.950;2022-12-07T12:30:35;101241.84;;;8.64;100.00
20630;BME280;17386;43.846;25.950;2022-12-07T12:33:27;101236.44;;;8.70;100.00
20630;BME280;17386;43.846;25.950;2022-12-07T12:47:00;101223.25;;;8.68;100.00
20630;BME280;17386;43.846;25.950;2022-12-07T12:51:59;101227.66;;;8.68;100.00
20630;BME280;17386;43.846;25.950;2022-12-07T12:54:29;101230.25;;;8.71;100.00
20630;BME280;17386;43.846;25.950;2022-12-07T12:57:05;101238.09;;;8.75;100.00
20630;BME280;17386;43.846;25.950;2022-12-07T12:59:33;101236.59;;;8.62;100.00
20630;BME280;17386;43.846;25.950;2022-12-07T13:02:22;101242.13;;;8.50;100.00
20630;BME280;17386;43.846;25.950;2022-12-07T13:04:59;101241.38;;;8.45;100.00
20630;BME280;17386;43.846;25.950;2022-12-07T13:15:35;101224.59;;;8.44;100.00
20630;BME280;17386;43.846;25.950;2022-12-07T13:18:04;101225.59;;;8.39;100.00
20630;BME280;17386;43.846;25.950;2022-12-07T13:20:48;101207.03;;;8.40;100.00
20630;BME280;17386;43.846;25.950;2022-12-07T13:23:19;101199.16;;;8.37;100.00
20630;BME280;17386;43.846;25.950;2022-12-07T13:25:53;101198.28;;;8.35;100.00
20630;BME280;17386;43.846;25.950;2022-12-07T13:28:21;101194.06;;;8.25;100.00
20630;BME280;17386;43.846;25.950;2022-12-07T13:33:35;101200.19;;;8.27;100.00
20630;BME280;17386;43.846;25.950;2022-12-07T13:36:00;101198.47;;;8.23;100.00
20630;BME280;17386;43.846;25.950;2022-12-07T13:38:32;101196.69;;;8.25;100.00
20630;BME280;17386;43.846;25.950;2022-12-07T13:41:27;101200.25;;;8.24;100.00
20630;BME280;17386;43.846;25.950;2022-12-07T13:44:13;101194.00;;;8.27;100.00
20630;BME280;17386;43.846;25.950;2022-12-07T13:49:26;101201.88;;;8.30;100.00
20630;BME280;17386;43.846;25.950;2022-12-07T13:51:52;101200.06;;;8.33;100.00
20630;BME280;17386;43.846;25.950;2022-12-07T13:54:18;101199.22;;;8.31;100.00
20630;BME280;17386;43.846;25.950;2022-12-07T13:56:48;101188.72;;;8.27;100.00
20630;BME280;17386;43.846;25.950;2022-12-07T13:59:19;101197.47;;;8.30;100.00
20630;BME280;17386;43.846;25.950;2022-12-07T14:01:46;101201.81;;;8.34;100.00
20630;BME280;17386;43.846;25.950;2022-12-07T14:04:16;101196.56;;;8.33;100.00
20630;BME280;17386;43.846;25.950;2022-12-07T14:06:51;101185.16;;;8.28;100.00
20630;BME280;17386;43.846;25.950;2022-12-07T14:09:20;101186.13;;;8.25;100.00
20630;BME280;17386;43.846;25.950;2022-12-07T14:11:48;101189.63;;;8.26;100.00
20630;BME280;17386;43.846;25.950;2022-12-07T14:14:21;101186.06;;;8.27;100.00
20630;BME280;17386;43.846;25.950;2022-12-07T14:17:15;101182.66;;;8.20;100.00
20630;BME280;17386;43.846;25.950;2022-12-07T14:19:47;101181.84;;;8.18;100.00